sensor_id;sensor_type;location;lat;lon;timestamp;temperature;humidity
23744;DHT22;12052;53.478;10.182;2023-09-30T00:00:17;12.70;99.90
23744;DHT22;12052;53.478;10.182;2023-09-30T00:02:43;12.80;99.90
23744;DHT22;12052;53.478;10.182;2023-09-30T00:05:09;12.70;99.90
23744;DHT22;12052;53.478;10.182;2023-09-30T00:07:35;12.70;99.90
23744;DHT22;12052;53.478;10.182;2023-09-30T00:10:01;12.70;99.90
23744;DHT22;12052;53.478;10.182;2023-09-30T00:12:28;12.70;99.90
23744;DHT22;12052;53.478;10.182;2023-09-30T00:14:54;12.70;99.90
23744;DHT22;12052;53.478;10.182;2023-09-30T00:17:20;12.70;99.90
23744;DHT22;12052;53.478;10.182;2023-09-30T00:19:45;12.70;99.90
23744;DHT22;12052;53.478;10.182;2023-09-30T00:22:11;12.60;99.90
23744;DHT22;12052;53.478;10.182;2023-09-30T00:24:37;12.60;99.90
23744;DHT22;12052;53.478;10.182;2023-09-30T00:27:02;12.60;99.90
23744;DHT22;12052;53.478;10.182;2023-09-30T00:29:28;12.60;99.90
23744;DHT22;12052;53.478;10.182;2023-09-30T00:31:53;12.60;99.90
23744;DHT22;12052;53.478;10.182;2023-09-30T00:34:19;12.50;99.90
23744;DHT22;12052;53.478;10.182;2023-09-30T00:36:45;12.50;99.90
23744;DHT22;12052;53.478;10.182;2023-09-30T00:39:10;12.50;99.90
23744;DHT22;12052;53.478;10.182;2023-09-30T00:41:38;12.50;99.90
23744;DHT22;12052;53.478;10.182;2023-09-30T00:44:04;12.50;99.90
23744;DHT22;12052;53.478;10.182;2023-09-30T00:46:32;12.50;99.90
23744;DHT22;12052;53.478;10.182;2023-09-30T00:48:59;12.50;99.90
23744;DHT22;12052;53.478;10.182;2023-09-30T00:51:25;12.50;99.90
23744;DHT22;12052;53.478;10.182;2023-09-30T00:53:52;12.50;99.90
23744;DHT22;12052;53.478;10.182;2023-09-30T00:56:19;12.50;99.90
23744;DHT22;12052;53.478;10.182;2023-09-30T00:58:46;12.50;99.90
23744;DHT22;12052;53.478;10.182;2023-09-30T01:01:13;12.40;99.90
23744;DHT22;12052;53.478;10.182;2023-09-30T01:03:42;12.50;99.90
23744;DHT22;12052;53.478;10.182;2023-09-30T01:06:08;12.50;99.90
23744;DHT22;12052;53.478;10.182;2023-09-30T01:08:35;12.50;99.90
23744;DHT22;12052;53.478;10.182;2023-09-30T01:11:01;12.60;99.90
23744;DHT22;12052;53.478;10.182;2023-09-30T01:13:37;12.60;99.90
23744;DHT22;12052;53.478;10.182;2023-09-30T01:16:04;12.60;99.90
23744;DHT22;12052;53.478;10.182;2023-09-30T01:18:30;12.60;99.90
23744;DHT22;12052;53.478;10.182;2023-09-30T01:20:56;12.60;99.90
23744;DHT22;12052;53.478;10.182;2023-09-30T01:23:22;12.60;99.90
23744;DHT22;12052;53.478;10.182;2023-09-30T01:25:48;12.50;99.90
23744;DHT22;12052;53.478;10.182;2023-09-30T01:28:15;12.50;99.90
23744;DHT22;12052;53.478;10.182;2023-09-30T01:30:41;12.50;99.90
23744;DHT22;12052;53.478;10.182;2023-09-30T01:33:09;12.50;99.90
23744;DHT22;12052;53.478;10.182;2023-09-30T01:35:35;12.40;99.90
23744;DHT22;12052;53.478;10.182;2023-09-30T01:38:00;12.40;99.90
23744;DHT22;12052;53.478;10.182;2023-09-30T01:40:26;12.40;99.90
23744;DHT22;12052;53.478;10.182;2023-09-30T01:42:52;12.40;99.90
23744;DHT22;12052;53.478;10.182;2023-09-30T01:45:17;12.30;99.90
23744;DHT22;12052;53.478;10.182;2023-09-30T01:47:43;12.30;99.90
23744;DHT22;12052;53.478;10.182;2023-09-30T01:50:09;12.40;99.90
23744;DHT22;12052;53.478;10.182;2023-09-30T01:52:34;12.30;99.90
23744;DHT22;12052;53.478;10.182;2023-09-30T01:55:00;12.30;99.90
23744;DHT22;12052;53.478;10.182;2023-09-30T01:57:25;12.30;99.90
23744;DHT22;12052;53.478;10.182;2023-09-30T01:59:51;12.30;99.90
23744;DHT22;12052;53.478;10.182;2023-09-30T02:02:17;12.30;99.90
23744;DHT22;12052;53.478;10.182;2023-09-30T02:04:43;12.20;99.90
23744;DHT22;12052;53.478;10.182;2023-09-30T02:07:09;12.20;99.90
23744;DHT22;12052;53.478;10.182;2023-09-30T02:09:34;12.20;99.90
23744;DHT22;12052;53.478;10.182;2023-09-30T02:12:01;12.10;99.90
23744;DHT22;12052;53.478;10.182;2023-09-30T02:14:27;12.10;99.90
23744;DHT22;12052;53.478;10.182;2023-09-30T02:16:53;12.10;99.90
23744;DHT22;12052;53.478;10.182;2023-09-30T02:19:19;12.00;99.90
23744;DHT22;12052;53.478;10.182;2023-09-30T02:21:45;12.00;99.90
23744;DHT22;12052;53.478;10.182;2023-09-30T02:24:11;12.00;99.90
23744;DHT22;12052;53.478;10.182;2023-09-30T02:26:36;12.00;99.90
23744;DHT22;12052;53.478;10.182;2023-09-30T02:29:04;11.90;99.90
23744;DHT22;12052;53.478;10.182;2023-09-30T02:31:33;11.90;99.90
23744;DHT22;12052;53.478;10.182;2023-09-30T02:33:59;11.90;99.90
23744;DHT22;12052;53.478;10.182;2023-09-30T02:36:24;11.80;99.90
23744;DHT22;12052;53.478;10.182;2023-09-30T02:38:50;11.80;99.90
23744;DHT22;12052;53.478;10.182;2023-09-30T02:41:16;11.80;99.90
23744;DHT22;12052;53.478;10.182;2023-09-30T02:43:42;11.80;99.90
23744;DHT22;12052;53.478;10.182;2023-09-30T02:46:08;11.80;99.90
23744;DHT22;12052;53.478;10.182;2023-09-30T02:48:34;11.80;99.90
23744;DHT22;12052;53.478;10.182;2023-09-30T02:50:59;11.70;99.90
23744;DHT22;12052;53.478;10.182;2023-09-30T02:53:25;11.70;99.90
23744;DHT22;12052;53.478;10.182;2023-09-30T02:55:50;11.70;99.90
23744;DHT22;12052;53.478;10.182;2023-09-30T02:58:23;11.80;99.90
23744;DHT22;12052;53.478;10.182;2023-09-30T03:00:49;11.70;99.90
23744;DHT22;12052;53.478;10.182;2023-09-30T03:03:15;11.70;99.90
23744;DHT22;12052;53.478;10.182;2023-09-30T03:05:41;11.70;99.90
23744;DHT22;12052;53.478;10.182;2023-09-30T03:08:07;11.60;99.90
23744;DHT22;12052;53.478;10.182;2023-09-30T03:10:32;11.60;99.90
23744;DHT22;12052;53.478;10.182;2023-09-30T03:12:58;11.70;99.90
23744;DHT22;12052;53.478;10.182;2023-09-30T03:15:27;11.60;99.90
23744;DHT22;12052;53.478;10.182;2023-09-30T03:17:53;11.60;99.90
23744;DHT22;12052;53.478;10.182;2023-09-30T03:20:21;11.60;99.90
23744;DHT22;12052;53.478;10.182;2023-09-30T03:22:47;11.50;99.90
23744;DHT22;12052;53.478;10.182;2023-09-30T03:25:14;11.60;99.90
23744;DHT22;12052;53.478;10.182;2023-09-30T03:27:41;11.60;99.90
23744;DHT22;12052;53.478;10.182;2023-09-30T03:30:08;11.60;99.90
23744;DHT22;12052;53.478;10.182;2023-09-30T03:32:34;11.50;99.90
23744;DHT22;12052;53.478;10.182;2023-09-30T03:35:04;11.50;99.90
23744;DHT22;12052;53.478;10.182;2023-09-30T03:37:31;11.50;99.90
23744;DHT22;12052;53.478;10.182;2023-09-30T03:39:57;11.50;99.90
23744;DHT22;12052;53.478;10.182;2023-09-30T03:42:23;11.50;99.90
23744;DHT22;12052;53.478;10.182;2023-09-30T03:44:49;11.50;99.90
23744;DHT22;12052;53.478;10.182;2023-09-30T03:47:18;11.50;99.90
23744;DHT22;12052;53.478;10.182;2023-09-30T03:49:44;11.50;99.90
23744;DHT22;12052;53.478;10.182;2023-09-30T03:52:11;11.50;99.90
23744;DHT22;12052;53.478;10.182;2023-09-30T03:54:37;11.50;99.90
23744;DHT22;12052;53.478;10.182;2023-09-30T03:57:03;11.50;99.90
23744;DHT22;12052;53.478;10.182;2023-09-30T03:59:29;11.50;99.90
23744;DHT22;12052;53.478;10.182;2023-09-30T04:01:56;11.50;99.90
23744;DHT22;12052;53.478;10.182;2023-09-30T04:04:24;11.50;99.90
23744;DHT22;12052;53.478;10.182;2023-09-30T04:06:50;11.40;99.90
23744;DHT22;12052;53.478;10.182;2023-09-30T04:09:17;11.40;99.90
23744;DHT22;12052;53.478;10.182;2023-09-30T04:11:43;11.50;99.90
23744;DHT22;12052;53.478;10.182;2023-09-30T04:14:09;11.40;99.90
23744;DHT22;12052;53.478;10.182;2023-09-30T04:16:35;11.40;99.90
23744;DHT22;12052;53.478;10.182;2023-09-30T04:19:03;11.40;99.90
23744;DHT22;12052;53.478;10.182;2023-09-30T04:21:29;11.50;99.90
23744;DHT22;12052;53.478;10.182;2023-09-30T04:23:55;11.40;99.90
23744;DHT22;12052;53.478;10.182;2023-09-30T04:26:22;11.50;99.90
23744;DHT22;12052;53.478;10.182;2023-09-30T04:28:47;11.50;99.90
23744;DHT22;12052;53.478;10.182;2023-09-30T04:31:14;11.50;99.90
23744;DHT22;12052;53.478;10.182;2023-09-30T04:33:40;11.50;99.90
23744;DHT22;12052;53.478;10.182;2023-09-30T04:36:06;11.50;99.90
23744;DHT22;12052;53.478;10.182;2023-09-30T04:38:35;11.60;99.90
23744;DHT22;12052;53.478;10.182;2023-09-30T04:41:03;11.50;99.90
23744;DHT22;12052;53.478;10.182;2023-09-30T04:43:33;11.50;99.90
23744;DHT22;12052;53.478;10.182;2023-09-30T04:45:58;11.60;99.90
23744;DHT22;12052;53.478;10.182;2023-09-30T04:48:24;11.60;99.90
23744;DHT22;12052;53.478;10.182;2023-09-30T04:50:49;11.60;99.90
23744;DHT22;12052;53.478;10.182;2023-09-30T04:53:16;11.50;99.90
23744;DHT22;12052;53.478;10.182;2023-09-30T04:55:43;11.60;99.90
23744;DHT22;12052;53.478;10.182;2023-09-30T04:58:10;11.70;99.90
23744;DHT22;12052;53.478;10.182;2023-09-30T05:00:36;11.60;99.90
23744;DHT22;12052;53.478;10.182;2023-09-30T05:03:02;11.70;99.90
23744;DHT22;12052;53.478;10.182;2023-09-30T05:05:27;11.70;99.90
23744;DHT22;12052;53.478;10.182;2023-09-30T05:07:54;11.80;99.90
23744;DHT22;12052;53.478;10.182;2023-09-30T05:10:19;11.70;99.90
23744;DHT22;12052;53.478;10.182;2023-09-30T05:12:45;11.70;99.90
23744;DHT22;12052;53.478;10.182;2023-09-30T05:15:15;11.70;99.90
23744;DHT22;12052;53.478;10.182;2023-09-30T05:17:41;11.70;99.90
23744;DHT22;12052;53.478;10.182;2023-09-30T05:20:09;11.70;99.90
23744;DHT22;12052;53.478;10.182;2023-09-30T05:22:36;11.70;99.90
23744;DHT22;12052;53.478;10.182;2023-09-30T05:25:02;11.80;99.90
23744;DHT22;12052;53.478;10.182;2023-09-30T05:27:27;11.80;99.90
23744;DHT22;12052;53.478;10.182;2023-09-30T05:29:53;11.80;99.90
23744;DHT22;12052;53.478;10.182;2023-09-30T05:32:19;11.80;99.90
23744;DHT22;12052;53.478;10.182;2023-09-30T05:34:44;11.80;99.90
23744;DHT22;12052;53.478;10.182;2023-09-30T05:37:10;11.80;99.90
23744;DHT22;12052;53.478;10.182;2023-09-30T05:39:37;11.80;99.90
23744;DHT22;12052;53.478;10.182;2023-09-30T05:42:03;11.80;99.90
23744;DHT22;12052;53.478;10.182;2023-09-30T05:44:29;11.80;99.90
23744;DHT22;12052;53.478;10.182;2023-09-30T05:46:54;11.80;99.90
23744;DHT22;12052;53.478;10.182;2023-09-30T05:49:20;11.80;99.90
23744;DHT22;12052;53.478;10.182;2023-09-30T05:51:45;11.80;99.90
23744;DHT22;12052;53.478;10.182;2023-09-30T05:54:12;11.80;99.90
23744;DHT22;12052;53.478;10.182;2023-09-30T05:56:38;11.80;99.90
23744;DHT22;12052;53.478;10.182;2023-09-30T05:59:04;11.90;99.90
23744;DHT22;12052;53.478;10.182;2023-09-30T06:01:31;11.90;99.90
23744;DHT22;12052;53.478;10.182;2023-09-30T06:03:58;11.90;99.90
23744;DHT22;12052;53.478;10.182;2023-09-30T06:06:23;11.90;99.90
23744;DHT22;12052;53.478;10.182;2023-09-30T06:08:49;12.00;99.90
23744;DHT22;12052;53.478;10.182;2023-09-30T06:11:19;12.00;99.90
23744;DHT22;12052;53.478;10.182;2023-09-30T06:13:45;12.00;99.90
23744;DHT22;12052;53.478;10.182;2023-09-30T06:16:14;12.00;99.90
23744;DHT22;12052;53.478;10.182;2023-09-30T06:18:41;12.00;99.90
23744;DHT22;12052;53.478;10.182;2023-09-30T06:21:07;12.00;99.90
23744;DHT22;12052;53.478;10.182;2023-09-30T06:23:35;12.10;99.90
23744;DHT22;12052;53.478;10.182;2023-09-30T06:26:01;12.10;99.90
23744;DHT22;12052;53.478;10.182;2023-09-30T06:28:28;12.10;99.90
23744;DHT22;12052;53.478;10.182;2023-09-30T06:30:57;12.10;99.90
23744;DHT22;12052;53.478;10.182;2023-09-30T06:33:23;12.10;99.90
23744;DHT22;12052;53.478;10.182;2023-09-30T06:35:49;12.10;99.90
23744;DHT22;12052;53.478;10.182;2023-09-30T06:38:20;12.10;99.90
23744;DHT22;12052;53.478;10.182;2023-09-30T06:40:46;12.10;99.90
23744;DHT22;12052;53.478;10.182;2023-09-30T06:43:13;12.10;99.90
23744;DHT22;12052;53.478;10.182;2023-09-30T06:45:44;12.10;99.90
23744;DHT22;12052;53.478;10.182;2023-09-30T06:48:11;12.20;99.90
23744;DHT22;12052;53.478;10.182;2023-09-30T06:50:46;12.20;99.90
23744;DHT22;12052;53.478;10.182;2023-09-30T06:53:17;12.30;99.90
23744;DHT22;12052;53.478;10.182;2023-09-30T06:55:47;12.40;99.90
23744;DHT22;12052;53.478;10.182;2023-09-30T06:58:13;12.50;99.90
23744;DHT22;12052;53.478;10.182;2023-09-30T07:00:40;12.60;99.90
23744;DHT22;12052;53.478;10.182;2023-09-30T07:03:06;12.70;99.90
23744;DHT22;12052;53.478;10.182;2023-09-30T07:05:33;12.80;99.90
23744;DHT22;12052;53.478;10.182;2023-09-30T07:07:58;12.90;99.90
23744;DHT22;12052;53.478;10.182;2023-09-30T07:10:24;13.00;99.90
23744;DHT22;12052;53.478;10.182;2023-09-30T07:12:50;13.00;99.90
23744;DHT22;12052;53.478;10.182;2023-09-30T07:15:16;13.20;99.90
23744;DHT22;12052;53.478;10.182;2023-09-30T07:17:42;13.30;99.90
23744;DHT22;12052;53.478;10.182;2023-09-30T07:20:09;13.40;99.90
23744;DHT22;12052;53.478;10.182;2023-09-30T07:22:35;13.40;99.90
23744;DHT22;12052;53.478;10.182;2023-09-30T07:25:01;13.60;99.90
23744;DHT22;12052;53.478;10.182;2023-09-30T07:27:27;13.60;99.90
23744;DHT22;12052;53.478;10.182;2023-09-30T07:29:53;13.70;99.90
23744;DHT22;12052;53.478;10.182;2023-09-30T07:32:19;13.70;99.90
23744;DHT22;12052;53.478;10.182;2023-09-30T07:34:44;13.70;99.90
23744;DHT22;12052;53.478;10.182;2023-09-30T07:37:10;13.80;99.90
23744;DHT22;12052;53.478;10.182;2023-09-30T07:39:36;13.80;99.90
23744;DHT22;12052;53.478;10.182;2023-09-30T07:42:02;13.90;99.90
23744;DHT22;12052;53.478;10.182;2023-09-30T07:44:27;14.00;99.90
23744;DHT22;12052;53.478;10.182;2023-09-30T07:46:53;14.10;99.90
23744;DHT22;12052;53.478;10.182;2023-09-30T07:49:19;14.10;99.90
23744;DHT22;12052;53.478;10.182;2023-09-30T07:51:45;14.30;99.90
23744;DHT22;12052;53.478;10.182;2023-09-30T07:54:12;14.40;99.90
23744;DHT22;12052;53.478;10.182;2023-09-30T07:56:37;14.50;99.90
23744;DHT22;12052;53.478;10.182;2023-09-30T07:59:04;14.60;99.90
23744;DHT22;12052;53.478;10.182;2023-09-30T08:01:31;14.70;99.90
23744;DHT22;12052;53.478;10.182;2023-09-30T08:03:56;14.80;99.90
23744;DHT22;12052;53.478;10.182;2023-09-30T08:06:22;14.80;99.90
23744;DHT22;12052;53.478;10.182;2023-09-30T08:08:48;14.90;99.90
23744;DHT22;12052;53.478;10.182;2023-09-30T08:11:15;14.80;99.90
23744;DHT22;12052;53.478;10.182;2023-09-30T08:13:40;15.00;99.90
23744;DHT22;12052;53.478;10.182;2023-09-30T08:16:06;14.90;99.90
23744;DHT22;12052;53.478;10.182;2023-09-30T08:18:32;15.00;99.90
23744;DHT22;12052;53.478;10.182;2023-09-30T08:20:58;15.10;99.90
23744;DHT22;12052;53.478;10.182;2023-09-30T08:23:23;15.20;99.90
23744;DHT22;12052;53.478;10.182;2023-09-30T08:25:49;15.30;99.90
23744;DHT22;12052;53.478;10.182;2023-09-30T08:28:14;15.40;99.90
23744;DHT22;12052;53.478;10.182;2023-09-30T08:30:40;15.50;99.90
23744;DHT22;12052;53.478;10.182;2023-09-30T08:33:06;15.60;99.90
23744;DHT22;12052;53.478;10.182;2023-09-30T08:35:38;15.70;99.90
23744;DHT22;12052;53.478;10.182;2023-09-30T08:38:05;15.60;99.90
23744;DHT22;12052;53.478;10.182;2023-09-30T08:40:30;15.60;99.90
23744;DHT22;12052;53.478;10.182;2023-09-30T08:42:56;15.80;99.90
23744;DHT22;12052;53.478;10.182;2023-09-30T08:45:22;15.80;99.90
23744;DHT22;12052;53.478;10.182;2023-09-30T08:47:48;16.00;99.90
23744;DHT22;12052;53.478;10.182;2023-09-30T08:50:16;16.10;99.90
23744;DHT22;12052;53.478;10.182;2023-09-30T08:52:44;16.10;99.90
23744;DHT22;12052;53.478;10.182;2023-09-30T08:55:13;16.30;99.90
23744;DHT22;12052;53.478;10.182;2023-09-30T08:57:40;16.20;99.90
23744;DHT22;12052;53.478;10.182;2023-09-30T09:00:11;16.50;99.90
23744;DHT22;12052;53.478;10.182;2023-09-30T09:02:38;16.40;99.90
23744;DHT22;12052;53.478;10.182;2023-09-30T09:05:04;16.50;99.90
23744;DHT22;12052;53.478;10.182;2023-09-30T09:07:30;16.50;99.90
23744;DHT22;12052;53.478;10.182;2023-09-30T09:10:11;16.60;99.90
23744;DHT22;12052;53.478;10.182;2023-09-30T09:12:41;16.90;99.90
23744;DHT22;12052;53.478;10.182;2023-09-30T09:15:08;16.90;99.90
23744;DHT22;12052;53.478;10.182;2023-09-30T09:17:45;16.90;99.90
23744;DHT22;12052;53.478;10.182;2023-09-30T09:20:16;16.90;99.90
23744;DHT22;12052;53.478;10.182;2023-09-30T09:22:46;16.90;99.90
23744;DHT22;12052;53.478;10.182;2023-09-30T09:25:12;17.10;99.90
23744;DHT22;12052;53.478;10.182;2023-09-30T09:27:38;17.00;99.90
23744;DHT22;12052;53.478;10.182;2023-09-30T09:33:03;17.20;99.90
23744;DHT22;12052;53.478;10.182;2023-09-30T09:35:33;17.30;99.90
23744;DHT22;12052;53.478;10.182;2023-09-30T09:38:06;17.30;99.90
23744;DHT22;12052;53.478;10.182;2023-09-30T09:40:36;17.30;99.90
23744;DHT22;12052;53.478;10.182;2023-09-30T09:43:04;17.30;99.90
23744;DHT22;12052;53.478;10.182;2023-09-30T09:48:05;17.50;99.90
23744;DHT22;12052;53.478;10.182;2023-09-30T09:50:31;17.60;99.90
23744;DHT22;12052;53.478;10.182;2023-09-30T09:52:59;17.70;99.90
23744;DHT22;12052;53.478;10.182;2023-09-30T09:55:26;17.80;99.90
23744;DHT22;12052;53.478;10.182;2023-09-30T09:57:53;17.90;99.90
23744;DHT22;12052;53.478;10.182;2023-09-30T10:00:23;18.00;99.90
23744;DHT22;12052;53.478;10.182;2023-09-30T10:02:50;17.80;99.90
23744;DHT22;12052;53.478;10.182;2023-09-30T10:05:17;17.90;99.90
23744;DHT22;12052;53.478;10.182;2023-09-30T10:08:02;17.90;99.90
23744;DHT22;12052;53.478;10.182;2023-09-30T10:10:28;17.90;99.90
23744;DHT22;12052;53.478;10.182;2023-09-30T10:12:54;17.90;99.90
23744;DHT22;12052;53.478;10.182;2023-09-30T10:18:08;17.90;99.90
23744;DHT22;12052;53.478;10.182;2023-09-30T10:20:41;17.90;99.90
23744;DHT22;12052;53.478;10.182;2023-09-30T10:23:26;18.00;99.90
23744;DHT22;12052;53.478;10.182;2023-09-30T10:25:54;18.00;99.90
23744;DHT22;12052;53.478;10.182;2023-09-30T10:28:37;17.90;99.90
23744;DHT22;12052;53.478;10.182;2023-09-30T10:33:33;18.00;99.90
23744;DHT22;12052;53.478;10.182;2023-09-30T10:35:59;17.80;99.90
23744;DHT22;12052;53.478;10.182;2023-09-30T10:41:00;17.80;99.90
23744;DHT22;12052;53.478;10.182;2023-09-30T10:43:40;17.80;99.90
23744;DHT22;12052;53.478;10.182;2023-09-30T10:48:53;18.00;99.90
23744;DHT22;12052;53.478;10.182;2023-09-30T10:51:19;17.90;99.90
23744;DHT22;12052;53.478;10.182;2023-09-30T10:53:52;17.90;99.90
23744;DHT22;12052;53.478;10.182;2023-09-30T10:56:21;18.10;99.90
23744;DHT22;12052;53.478;10.182;2023-09-30T10:58:53;18.00;99.90
23744;DHT22;12052;53.478;10.182;2023-09-30T11:01:21;18.10;99.90
23744;DHT22;12052;53.478;10.182;2023-09-30T11:03:47;18.10;99.90
23744;DHT22;12052;53.478;10.182;2023-09-30T11:06:19;18.30;99.90
23744;DHT22;12052;53.478;10.182;2023-09-30T11:09:06;18.40;99.90
23744;DHT22;12052;53.478;10.182;2023-09-30T11:14:28;18.70;99.90
23744;DHT22;12052;53.478;10.182;2023-09-30T11:16:57;18.60;99.90
23744;DHT22;12052;53.478;10.182;2023-09-30T11:19:23;18.70;99.90
23744;DHT22;12052;53.478;10.182;2023-09-30T11:21:51;18.70;99.90
23744;DHT22;12052;53.478;10.182;2023-09-30T11:24:17;18.50;99.90
23744;DHT22;12052;53.478;10.182;2023-09-30T11:26:43;18.50;99.90
23744;DHT22;12052;53.478;10.182;2023-09-30T11:29:16;18.40;99.90
23744;DHT22;12052;53.478;10.182;2023-09-30T11:31:47;18.30;99.90
23744;DHT22;12052;53.478;10.182;2023-09-30T11:34:15;18.50;99.90
23744;DHT22;12052;53.478;10.182;2023-09-30T11:36:48;18.60;99.90
23744;DHT22;12052;53.478;10.182;2023-09-30T11:39:28;18.60;99.90
23744;DHT22;12052;53.478;10.182;2023-09-30T11:41:55;18.70;99.90
23744;DHT22;12052;53.478;10.182;2023-09-30T11:44:22;18.80;99.90
23744;DHT22;12052;53.478;10.182;2023-09-30T11:49:40;19.10;99.90
23744;DHT22;12052;53.478;10.182;2023-09-30T11:52:11;19.10;99.90
23744;DHT22;12052;53.478;10.182;2023-09-30T11:54:41;18.90;99.90
23744;DHT22;12052;53.478;10.182;2023-09-30T11:57:15;18.90;99.90
23744;DHT22;12052;53.478;10.182;2023-09-30T11:59:42;18.90;99.90
23744;DHT22;12052;53.478;10.182;2023-09-30T12:02:12;18.90;99.90
23744;DHT22;12052;53.478;10.182;2023-09-30T12:04:38;18.90;99.90
23744;DHT22;12052;53.478;10.182;2023-09-30T12:07:04;18.80;99.90
23744;DHT22;12052;53.478;10.182;2023-09-30T12:09:33;18.90;99.90
23744;DHT22;12052;53.478;10.182;2023-09-30T12:12:03;19.00;99.90
23744;DHT22;12052;53.478;10.182;2023-09-30T12:14:29;19.20;99.90
23744;DHT22;12052;53.478;10.182;2023-09-30T12:16:58;19.10;99.90
23744;DHT22;12052;53.478;10.182;2023-09-30T12:19:23;18.90;99.90
23744;DHT22;12052;53.478;10.182;2023-09-30T12:21:50;18.80;99.90
23744;DHT22;12052;53.478;10.182;2023-09-30T12:24:16;18.80;99.90
23744;DHT22;12052;53.478;10.182;2023-09-30T12:26:46;18.80;99.90
23744;DHT22;12052;53.478;10.182;2023-09-30T12:29:15;19.00;99.90
23744;DHT22;12052;53.478;10.182;2023-09-30T12:31:45;19.10;99.90
23744;DHT22;12052;53.478;10.182;2023-09-30T12:34:11;19.10;99.90
23744;DHT22;12052;53.478;10.182;2023-09-30T12:36:38;18.90;99.90
23744;DHT22;12052;53.478;10.182;2023-09-30T12:39:04;18.90;99.90
23744;DHT22;12052;53.478;10.182;2023-09-30T12:41:36;18.70;99.90
23744;DHT22;12052;53.478;10.182;2023-09-30T12:44:02;18.50;99.90
23744;DHT22;12052;53.478;10.182;2023-09-30T12:46:28;18.50;99.90
23744;DHT22;12052;53.478;10.182;2023-09-30T12:48:54;18.50;99.90
23744;DHT22;12052;53.478;10.182;2023-09-30T12:51:20;18.50;99.90
23744;DHT22;12052;53.478;10.182;2023-09-30T12:53:46;18.60;99.90
23744;DHT22;12052;53.478;10.182;2023-09-30T12:56:11;18.50;99.90
23744;DHT22;12052;53.478;10.182;2023-09-30T12:58:37;18.50;99.90
23744;DHT22;12052;53.478;10.182;2023-09-30T13:01:04;18.50;99.90
23744;DHT22;12052;53.478;10.182;2023-09-30T13:03:31;18.60;99.90
23744;DHT22;12052;53.478;10.182;2023-09-30T13:05:57;18.60;99.90
23744;DHT22;12052;53.478;10.182;2023-09-30T13:08:23;18.40;99.90
23744;DHT22;12052;53.478;10.182;2023-09-30T13:10:48;18.30;99.90
23744;DHT22;12052;53.478;10.182;2023-09-30T13:13:16;18.30;99.90
23744;DHT22;12052;53.478;10.182;2023-09-30T13:15:41;18.20;99.90
23744;DHT22;12052;53.478;10.182;2023-09-30T13:18:07;18.30;99.90
23744;DHT22;12052;53.478;10.182;2023-09-30T13:20:33;18.30;99.90
23744;DHT22;12052;53.478;10.182;2023-09-30T13:22:58;18.30;99.90
23744;DHT22;12052;53.478;10.182;2023-09-30T13:25:24;18.30;99.90
23744;DHT22;12052;53.478;10.182;2023-09-30T13:27:49;18.40;99.90
23744;DHT22;12052;53.478;10.182;2023-09-30T13:30:15;18.40;99.90
23744;DHT22;12052;53.478;10.182;2023-09-30T13:32:43;18.40;99.90
23744;DHT22;12052;53.478;10.182;2023-09-30T13:35:09;18.40;99.90
23744;DHT22;12052;53.478;10.182;2023-09-30T13:37:35;18.40;99.90
23744;DHT22;12052;53.478;10.182;2023-09-30T13:40:03;18.40;99.90
23744;DHT22;12052;53.478;10.182;2023-09-30T13:42:33;18.40;99.90
23744;DHT22;12052;53.478;10.182;2023-09-30T13:44:59;18.50;99.90
23744;DHT22;12052;53.478;10.182;2023-09-30T13:47:26;18.70;99.90
23744;DHT22;12052;53.478;10.182;2023-09-30T13:49:52;18.70;99.90
23744;DHT22;12052;53.478;10.182;2023-09-30T13:52:18;18.70;99.90
23744;DHT22;12052;53.478;10.182;2023-09-30T13:54:43;18.70;99.90
23744;DHT22;12052;53.478;10.182;2023-09-30T13:57:09;18.70;99.90
23744;DHT22;12052;53.478;10.182;2023-09-30T13:59:35;18.80;99.90
23744;DHT22;12052;53.478;10.182;2023-09-30T14:02:04;18.80;99.90
23744;DHT22;12052;53.478;10.182;2023-09-30T14:04:30;18.70;99.90
23744;DHT22;12052;53.478;10.182;2023-09-30T14:07:02;18.60;99.90
23744;DHT22;12052;53.478;10.182;2023-09-30T14:09:28;18.60;99.90
23744;DHT22;12052;53.478;10.182;2023-09-30T14:11:54;18.40;99.90
23744;DHT22;12052;53.478;10.182;2023-09-30T14:14:20;18.40;99.90
23744;DHT22;12052;53.478;10.182;2023-09-30T14:16:46;18.30;99.90
23744;DHT22;12052;53.478;10.182;2023-09-30T14:19:12;18.20;99.90
23744;DHT22;12052;53.478;10.182;2023-09-30T14:21:41;18.10;99.90
23744;DHT22;12052;53.478;10.182;2023-09-30T14:24:07;18.10;99.90
23744;DHT22;12052;53.478;10.182;2023-09-30T14:26:33;18.10;99.90
23744;DHT22;12052;53.478;10.182;2023-09-30T14:28:59;18.10;99.90
23744;DHT22;12052;53.478;10.182;2023-09-30T14:31:25;18.10;99.90
23744;DHT22;12052;53.478;10.182;2023-09-30T14:33:50;18.10;99.90
23744;DHT22;12052;53.478;10.182;2023-09-30T14:36:17;18.10;99.90
23744;DHT22;12052;53.478;10.182;2023-09-30T14:38:44;18.10;99.90
23744;DHT22;12052;53.478;10.182;2023-09-30T14:41:12;18.10;99.90
23744;DHT22;12052;53.478;10.182;2023-09-30T14:43:39;18.10;99.90
23744;DHT22;12052;53.478;10.182;2023-09-30T14:46:05;18.10;99.90
23744;DHT22;12052;53.478;10.182;2023-09-30T14:48:31;18.10;99.90
23744;DHT22;12052;53.478;10.182;2023-09-30T14:50:57;18.10;99.90
23744;DHT22;12052;53.478;10.182;2023-09-30T14:53:23;18.00;99.90
23744;DHT22;12052;53.478;10.182;2023-09-30T14:55:50;18.00;99.90
23744;DHT22;12052;53.478;10.182;2023-09-30T14:58:15;18.00;99.90
23744;DHT22;12052;53.478;10.182;2023-09-30T15:00:41;18.00;99.90
23744;DHT22;12052;53.478;10.182;2023-09-30T15:03:07;18.00;99.90
23744;DHT22;12052;53.478;10.182;2023-09-30T15:05:33;18.00;99.90
23744;DHT22;12052;53.478;10.182;2023-09-30T15:07:59;17.90;99.90
23744;DHT22;12052;53.478;10.182;2023-09-30T15:10:27;18.00;99.90
23744;DHT22;12052;53.478;10.182;2023-09-30T15:12:53;18.00;99.90
23744;DHT22;12052;53.478;10.182;2023-09-30T15:15:18;18.00;99.90
23744;DHT22;12052;53.478;10.182;2023-09-30T15:17:44;18.00;99.90
23744;DHT22;12052;53.478;10.182;2023-09-30T15:20:10;18.00;99.90
23744;DHT22;12052;53.478;10.182;2023-09-30T15:22:36;17.90;99.90
23744;DHT22;12052;53.478;10.182;2023-09-30T15:25:02;17.90;99.90
23744;DHT22;12052;53.478;10.182;2023-09-30T15:27:28;17.90;99.90
23744;DHT22;12052;53.478;10.182;2023-09-30T15:29:53;17.90;99.90
23744;DHT22;12052;53.478;10.182;2023-09-30T15:32:20;17.80;99.90
23744;DHT22;12052;53.478;10.182;2023-09-30T15:34:46;17.80;99.90